Onion Creek, California Weather observations

Data are for observation ending at time listed.
 Day   Time    Ave.   Ave.  Ave.  Vector   Max.   Stn.    Total    Solar   Ave.   Snow 
  of    of     Air    Rel.  Wind   Wind    Wind   Baro.  Precip.   Rad.    Soil   Depth
Year   Day     Temp.  Hum.  Speed  Dir.    Gust   Pres.                    Temp.       
2026   (PST)    F      %     mph   deg.    mph     mb.     in.     W/m2     F      in. 
---------------------------------------------------------------------------------------  
 125   11:10   52.2    72    1.6   350      7.8   826.8    0.01     892    43.3   999.0
 125   11:20   53.7    68    2.0   114      5.3   826.8    0.00    1085    43.6   999.0
 125   11:30   54.0    66    2.3    33      5.6   826.9    0.00     965    43.9   999.0
 125   11:40   53.4    65    2.0   135      6.0   826.9    0.00     924    44.2   999.0
 125   11:50   54.1    65    2.5   136      9.1   826.9    0.00     948    44.5   999.0
 125   12:00   55.0    65    2.0    84      7.1   826.8    0.00    1020    44.8   999.0
 125   12:10   55.3    64    1.4   136      5.4   826.8    0.00     900    45.0   999.0
 125   12:20   55.9    62    1.3   305      4.4   826.8    0.00     654    45.3   999.0
 125   12:30   56.3    61    1.0   204      5.0   826.8    0.00     646    45.6   999.0
 125   12:40   55.4    60    1.9   112      6.4   826.8    0.00     754    45.9   999.0
 125   12:50   56.2    60    1.6   182      3.9   826.7    0.00    1024    46.2   999.0
 125   13:00   56.3    57    1.5    57      4.2   826.8    0.00     295    46.5   999.0
 125   13:10   56.3    58    1.1   198      3.8   826.8    0.00     823    46.8   999.0
 125   13:20   56.4    61    2.0   191      4.1   826.9    0.00     560    47.0   999.0
 125   13:30   54.8    72    2.7   275      6.4   826.8    0.00     666    47.4   999.0
 125   13:40   53.3    77    1.2   317      4.4   826.9    0.00     384    47.7   999.0
 125   13:50   53.1    77    1.3   230      4.7   826.8    0.00     533    47.9   999.0
 125   14:00   52.6    77    1.8   251      6.5   826.8    0.00     338    48.1   999.0
 125   14:10   51.8    79    2.1   250      5.8   826.8    0.00     288    48.4   999.0
 125   14:20   52.1    79    1.7   243      4.2   826.8    0.00     915    48.7   999.0
 125   14:30   53.2    76    2.1   229      6.6   826.7    0.00     852    48.8   999.0
 125   14:40   53.9    75    1.8   160      5.6   826.7    0.00     829    49.0   999.0
 125   14:50   53.0    75    1.9   101      7.1   826.8    0.00     475    49.2   999.0
 125   15:00   51.6    79    2.3   184      7.2   826.8    0.00     565    49.5   999.0
 125   15:10   51.7    78    2.0   111      6.6   826.9    0.00     610    49.7   999.0
 125   15:20   50.4    81    2.5   144      8.3   827.0    0.00     418    49.9   999.0
 125   15:30   49.0    84    2.5   126      6.1   827.0    0.00     328    50.1   999.0
 125   15:40   48.8    86    2.5   134      6.1   827.1    0.00     410    50.3   999.0
 125   15:50   48.6    86    1.6   132      6.2   827.3    0.00     234    50.5   999.0
 125   16:00   47.6    88    1.8   127      5.6   827.4    0.00     228    50.7   999.0
 125   16:10   47.2    89    1.8   150      4.9   827.4    0.00     242    50.8   999.0
 125   16:20   47.6    89    1.2   296      3.9   827.4    0.00     191    51.0   999.0
 125   16:30   48.5    87    1.1   244      3.5   827.4    0.00     187    51.1   999.0
 125   16:40   48.8    87    1.5   274      3.6   827.5    0.00     237    51.2   999.0
 125   16:50   49.3    86    1.1   272      2.8   827.4    0.00     308    51.2   999.0
 125   17:00   49.9    84    1.5   229      3.6   827.6    0.00     170    51.3   999.0
 125   17:10   47.2    89    1.5   261      3.8   827.7    0.00     125    51.4   999.0
 125   17:20   45.8    92    0.6   178      3.3   827.7    0.00     109    51.5   999.0
 125   17:30   45.4    94    1.5   131      3.9   827.8    0.00      96    51.5   999.0
 125   17:40   45.6    94    1.2   244      4.1   827.9    0.00      62    51.6   999.0
 125   17:50   44.8    94    1.1   118      4.9   828.0    0.00      45    51.6   999.0
 125   18:00   44.6    95    1.0   258      2.8   828.0    0.00      39    51.6   999.0
 125   18:10   44.7    96    0.3   273      1.9   828.0    0.00      30    51.6   999.0
 125   18:20   44.8    96    0.1   279      1.0   828.1    0.00      23    51.6   999.0
 125   18:30   44.9    96    0.8   281      2.3   828.2    0.00      15    51.6   999.0
 125   18:40   44.9    96    0.2   291      1.8   828.2    0.00       6    51.6   999.0
 125   18:50   44.9    96    0.0     0      0.0   828.2    0.00       4    51.5   999.0
 125   19:00   45.2    96    0.0     0      0.0   828.2    0.00       3    51.5   999.0
 125   19:10   45.2    95    0.3   275      1.4   828.3    0.00       2    51.4   999.0
 125   19:20   45.0    95    0.3   267      2.1   828.5    0.00       1    51.4   999.0
 125   19:30   44.8    95    0.0   230      0.4   828.7    0.00       0    51.3   999.0
 125   19:40   44.9    95    0.6   186      2.0   828.8    0.00       0    51.3   999.0
 125   19:50   44.8    95    0.7   229      2.5   828.8    0.00       0    51.2   999.0
 125   20:00   44.1    95    0.6   217      2.8   829.0    0.00       0    51.2   999.0
 125   20:10   44.0    96    0.1   246      1.0   829.1    0.00       0    51.1   999.0
 125   20:20   43.9    96    0.1   327      1.0   829.2    0.00       0    51.0   999.0
 125   20:30   44.0    96    0.1   284      1.5   829.2    0.00       0    50.9   999.0
 125   20:40   44.0    96    0.1   247      0.9   829.3    0.00       0    50.9   999.0
 125   20:50   43.9    96    0.4   278      1.8   829.3    0.00       0    50.8   999.0
 125   21:00   43.8    96    0.1    63      1.4   829.4    0.00       0    50.7   999.0
 125   21:10   43.8    96    0.9   150      2.6   829.4    0.00       0    50.6   999.0
 125   21:20   43.6    97    0.4   150      2.3   829.5    0.00       0    50.6   999.0
 125   21:30   43.6    97    0.1   266      2.1   829.7    0.00       0    50.5   999.0
 125   21:40   43.6    97    0.1    64      1.7   829.7    0.00       0    50.4   999.0
 125   21:50   43.5    97    0.1   177      0.9   829.7    0.00       0    50.4   999.0
 125   22:00   43.4    97    0.0   345      0.7   829.7    0.00       0    50.3   999.0
 125   22:10   43.3    97    0.0     0      0.0   829.8    0.00       0    50.2   999.0
 125   22:20   43.2    97    0.0     0      0.0   829.9    0.00       0    50.1   999.0
 125   22:30   43.3    97    0.1   273      1.3   830.0    0.00       0    50.1   999.0
 125   22:40   43.0    97    0.1   262      0.7   830.1    0.00       0    50.0   999.0
 125   22:50   43.0    97    0.0   353      0.2   830.2    0.00       0    49.9   999.0
 125   23:00   42.7    97    0.0   329      0.7   830.3    0.00       0    49.8   999.0
 125   23:10   42.6    97    0.2   356      1.5   830.4    0.00       0    49.7   999.0
 125   23:20   42.3    97    0.0   337      0.4   830.4    0.00       0    49.7   999.0
 125   23:30   41.9    96    0.1   349      1.1   830.5    0.00       0    49.6   999.0
 125   23:40   41.7    96    0.3   347      1.2   830.6    0.00       0    49.5   999.0
 125   23:50   41.4    96    0.3   352      2.3   830.7    0.00       0    49.5   999.0
 126    0:00   41.2    96    0.3   323      1.4   830.6    0.00       0    49.4   999.0
 126    0:10   40.6    96    0.0   203      0.8   830.7    0.00       0    49.4   999.0
 126    0:20   40.3    96    0.3   343      1.6   830.7    0.00       0    49.3   999.0
 126    0:30   40.1    96    0.2     4      1.4   830.6    0.00       0    49.2   999.0
 126    0:40   39.7    96    0.3   357      1.8   830.6    0.00       0    49.2   999.0
 126    0:50   39.2    96    0.1   164      0.7   830.5    0.00       0    49.1   999.0
 126    1:00   38.6    96    0.0    28      0.8   830.5    0.00       0    49.0   999.0
 126    1:10   38.1    96    0.2     3      1.0   830.5    0.00       0    48.9   999.0
 126    1:20   37.7    96    0.1   352      1.8   830.5    0.00       0    48.9   999.0
 126    1:30   37.6    96    0.0    61      1.1   830.5    0.00       0    48.8   999.0
 126    1:40   37.5    96    0.0    44      0.1   830.5    0.00       0    48.7   999.0
 126    1:50   37.5    96    0.5    15      2.4   830.5    0.00       0    48.6   999.0
 126    2:00   37.5    96    0.2    33      1.3   830.6    0.00       0    48.5   999.0
 126    2:10   37.8    96    0.4    43      2.0   830.7    0.00       0    48.4   999.0
 126    2:20   37.9    96    0.5   117      1.9   830.7    0.00       0    48.3   999.0
 126    2:30   37.9    97    0.3    48      1.8   830.8    0.00       0    48.2   999.0
 126    2:40   38.0    97    0.3    34      1.5   830.8    0.00       0    48.1   999.0
 126    2:50   38.1    97    0.7    34      2.6   830.9    0.00       0    47.9   999.0
 126    3:00   38.2    97    0.2   360      2.2   830.9    0.00       0    47.9   999.0
 126    3:10   38.2    97    0.5    29      3.1   830.9    0.00       0    47.8   999.0
 126    3:20   38.2    97    0.1     8      1.8   831.0    0.00       0    47.6   999.0
 126    3:30   38.4    97    0.2    40      1.8   831.2    0.00       0    47.6   999.0
 126    3:40   38.5    97    0.1    68      2.0   831.2    0.00       0    47.5   999.0
 126    3:50   38.6    97    0.1    87      1.2   831.3    0.00       0    47.3   999.0
 126    4:00   38.9    97    0.7    50      2.2   831.4    0.00       0    47.2   999.0
 126    4:10   39.5    97    0.9    48      2.6   831.5    0.00       0    47.1   999.0
 126    4:20   39.7    97    0.8    44      2.7   831.6    0.00       0    47.0   999.0
 126    4:30   39.8    97    0.4    54      2.9   831.7    0.00       0    46.9   999.0
 126    4:40   39.6    97    0.2    12      1.5   831.8    0.00       0    46.8   999.0
 126    4:50   39.3    97    0.1    39      0.9   831.9    0.00       1    46.8   999.0
 126    5:00   39.1    97    0.2    88      1.9   832.0    0.00       2    46.7   999.0
 126    5:10   39.1    97    0.1    54      1.2   832.1    0.00       4    46.6   999.0
 126    5:20   39.2    97    0.3    48      3.0   832.2    0.00       7    46.5   999.0
 126    5:30   39.6    97    1.0    50      2.7   832.3    0.00       9    46.4   999.0
 126    5:40   40.2    97    1.6    50      3.8   832.4    0.00      11    46.3   999.0
 126    5:50   40.3    97    0.5    24      2.2   832.6    0.00      13    46.2   999.0
 126    6:00   40.0    97    0.4    31      1.7   832.6    0.00      14    46.2   999.0
 126    6:10   39.9    97    0.2    38      1.3   832.7    0.00      16    46.1   999.0
 126    6:20   40.2    97    1.0    39      2.8   832.9    0.00      18    46.0   999.0
 126    6:30   41.0    97    1.8    40      3.1   833.1    0.00      22    45.9   999.0
 126    6:40   41.8    97    2.0    49      3.6   833.2    0.00      40    45.8   999.0
 126    6:50   42.5    97    1.9    45      3.4   833.3    0.00      48    45.7   999.0
 126    7:00   42.9    97    1.7    45      3.1   833.4    0.00     192    45.7   999.0
 126    7:10   44.2    97    1.6    47      3.8   833.5    0.00     372    45.6   999.0
 126    7:20   45.7    94    1.8    55      2.7   833.5    0.00     393    45.5   999.0
 126    7:30   47.2    86    1.2    58      3.4   833.6    0.00     282    45.4   999.0
 126    7:40   48.2    83    1.0    54      3.1   833.6    0.00     271    45.4   999.0
 126    7:50   48.2    82    0.8    60      2.2   833.6    0.00      54    45.4   999.0
 126    8:00   48.7    81    0.8    55      2.5   833.6    0.00      60    45.4   999.0
 126    8:10   49.8    77    0.9    69      4.7   833.6    0.00     163    45.4   999.0
 126    8:20   52.1    69    1.4    74      4.0   833.7    0.00      52    45.4   999.0
 126    8:30   53.7    63    0.6    50      3.4   833.7    0.00      55    45.4   999.0
 126    8:40   54.8    59    1.8    47      6.5   833.7    0.00      51    45.4   999.0
 126    8:50   56.7    51    1.9    62      4.8   833.7    0.00     289    45.4   999.0
 126    9:00   57.7    51    1.3    38      5.8   833.7    0.00     731    45.4   999.0
 126    9:10   59.1    45    2.1    89      7.8   833.8    0.00     762    45.4   999.0
 126    9:20   60.4    46    1.7    44      7.7   833.8    0.00     794    45.4   999.0
 126    9:30   61.4    42    1.2   347      5.0   833.9    0.00     820    45.5   999.0
 126    9:40   62.7    44    0.6   110      3.7   834.0    0.00     845    45.5   999.0
 126    9:50   63.0    38    2.0    21      6.4   834.0    0.00     869    45.5   999.0
 126   10:00   63.5    37    1.5   217      5.2   834.1    0.00     892    45.6   999.0
 126   10:10   63.8    37    1.8   278      7.7   834.1    0.00     907    45.7   999.0
 126   10:20   64.2    35    1.6   220      9.2   834.2    0.00     925    45.8   999.0
 126   10:30   64.3    36    2.5   108      8.7   834.3    0.00     943    45.9   999.0
 126   10:40   64.2    32    2.4    91      8.7   834.4    0.00     950    46.1   999.0
 126   10:50   64.5    31    2.2   351      5.9   834.3    0.00     966    46.3   999.0
 126   11:00   64.6    30    2.8    97      8.6   834.4    0.00     978    46.5   999.0

Return to Onion Creek graphs page.


Western Regional Climate Center,wrcc@dri.edu